Time;durP1;ratioP1;P1;durP2;ratioP2;P2;SDS_P1;SDS_P2;PMS_P1;PMS_P2;Temp;Humidity;BMP_temperature;BMP_pressure;BME280_temperature;BME280_humidity;BME280_pressure;Samples;Min_cycle;Max_cycle;Signal;HPM_P1;HPM_P2
2020/12/07 00:02:35;;;;;;;25.95;11.27;;;;;;;;;;8296793;28;20074;-77
2020/12/07 00:06:38;;;;;;;15.60;8.57;;;;;;;;;;8295427;28;20410;-76
2020/12/07 00:10:41;;;;;;;28.70;12.35;;;;;;;;;;8295428;28;20067;-77
2020/12/07 00:14:44;;;;;;;19.33;10.63;;;;;;;;;;8278927;28;20053;-76
2020/12/07 00:18:48;;;;;;;19.08;11.32;;;;;;;;;;8295779;28;20379;-77
2020/12/07 00:22:51;;;;;;;16.67;10.25;;;;;;;;;;8296822;28;20463;-77
2020/12/07 00:26:53;;;;;;;22.02;11.80;;;;;;;;;;8278809;28;20374;-77
2020/12/07 00:30:56;;;;;;;20.20;10.85;;;;;;;;;;8293647;28;20411;-77
2020/12/07 00:34:59;;;;;;;15.00;9.13;;;;;;;;;;8295783;28;20387;-76
2020/12/07 00:39:03;;;;;;;22.13;11.57;;;;;;;;;;8276338;28;20053;-77
2020/12/07 00:43:06;;;;;;;18.20;10.30;;;;;;;;;;8295098;28;20049;-76
2020/12/07 00:47:11;;;;;;;16.10;9.15;;;;;;;;;;8294057;28;20403;-77
2020/12/07 00:51:14;;;;;;;17.00;8.90;;;;;;;;;;8293109;28;20459;-77
2020/12/07 00:55:17;;;;;;;23.25;11.15;;;;;;;;;;8275926;28;20463;-76
2020/12/07 00:59:20;;;;;;;18.08;8.45;;;;;;;;;;8293374;28;20386;-77
2020/12/07 01:03:24;;;;;;;18.75;10.43;;;;;;;;;;8293798;28;20459;-77
2020/12/07 01:07:28;;;;;;;20.27;10.35;;;;;;;;;;8292372;28;20052;-76
2020/12/07 01:11:31;;;;;;;16.25;8.00;;;;;;;;;;8291547;28;20470;-76
2020/12/07 01:15:38;;;;;;;25.65;13.75;;;;;;;;;;8275670;28;20052;-77
2020/12/07 01:19:41;;;;;;;26.70;11.27;;;;;;;;;;8275457;28;20048;-76
2020/12/07 01:23:49;;;;;;;25.48;12.32;;;;;;;;;;8275873;28;20387;-77
2020/12/07 01:27:52;;;;;;;25.52;12.80;;;;;;;;;;8275913;28;20471;-77
2020/12/07 01:31:59;;;;;;;20.58;10.20;;;;;;;;;;8277103;28;20052;-78
2020/12/07 01:36:02;;;;;;;19.63;9.90;;;;;;;;;;8275174;28;20382;-77
2020/12/07 01:40:06;;;;;;;16.92;8.68;;;;;;;;;;8292469;28;20068;-77
2020/12/07 01:44:09;;;;;;;22.35;10.27;;;;;;;;;;8274759;28;20052;-77
2020/12/07 01:48:14;;;;;;;23.35;11.07;;;;;;;;;;8275178;28;20582;-78
2020/12/07 01:52:19;;;;;;;18.73;10.38;;;;;;;;;;8274325;28;20410;-77
2020/12/07 01:56:31;;;;;;;34.88;12.73;;;;;;;;;;8272641;28;20409;-76
2020/12/07 02:00:41;;;;;;;37.25;15.73;;;;;;;;;;8289424;28;20067;-78
2020/12/07 02:04:47;;;;;;;17.50;8.85;;;;;;;;;;8273985;28;20045;-76
2020/12/07 02:08:51;;;;;;;23.23;11.80;;;;;;;;;;8240088;28;20475;-78
2020/12/07 02:12:57;;;;;;;19.33;10.68;;;;;;;;;;8290289;28;20459;-76
2020/12/07 02:16:59;;;;;;;13.70;8.35;;;;;;;;;;8290619;28;20467;-75
2020/12/07 02:21:05;;;;;;;12.68;7.20;;;;;;;;;;8273543;28;20074;-77
2020/12/07 02:25:23;;;;;;;16.95;8.50;;;;;;;;;;8290700;28;20392;-77
2020/12/07 02:29:30;;;;;;;13.55;8.40;;;;;;;;;;8273852;28;20370;-76
2020/12/07 02:33:38;;;;;;;13.02;8.30;;;;;;;;;;8291896;28;20482;-76
2020/12/07 02:37:45;;;;;;;15.38;8.93;;;;;;;;;;8291793;28;20049;-77
2020/12/07 02:41:50;;;;;;;15.40;8.95;;;;;;;;;;8273174;28;20052;-77
2020/12/07 02:45:54;;;;;;;13.50;7.90;;;;;;;;;;8273231;28;20052;-76
2020/12/07 02:49:57;;;;;;;24.48;12.23;;;;;;;;;;8291700;28;20573;-76
2020/12/07 02:54:02;;;;;;;15.10;8.77;;;;;;;;;;8273469;28;20489;-77
2020/12/07 02:58:08;;;;;;;24.08;11.05;;;;;;;;;;8273118;28;20355;-76
2020/12/07 03:02:11;;;;;;;16.50;8.82;;;;;;;;;;8272413;28;20379;-76
2020/12/07 03:06:14;;;;;;;15.25;9.43;;;;;;;;;;8291173;28;20352;-77
2020/12/07 03:10:20;;;;;;;19.23;8.88;;;;;;;;;;8273387;28;20495;-76
2020/12/07 03:14:28;;;;;;;16.43;9.10;;;;;;;;;;8294400;28;20455;-76
2020/12/07 03:18:32;;;;;;;15.13;7.55;;;;;;;;;;8279001;28;20125;-76
2020/12/07 03:22:39;;;;;;;20.27;10.50;;;;;;;;;;8278743;28;20479;-77
2020/12/07 03:26:43;;;;;;;16.55;8.63;;;;;;;;;;8116730;28;5000456;-80
2020/12/07 03:30:51;;;;;;;13.60;8.03;;;;;;;;;;8329277;28;20478;-77
2020/12/07 03:34:55;;;;;;;13.68;8.43;;;;;;;;;;8327653;28;20805;-77
2020/12/07 03:39:00;;;;;;;19.52;10.55;;;;;;;;;;8327220;28;20374;-77
2020/12/07 03:43:03;;;;;;;15.80;8.82;;;;;;;;;;8344620;28;20051;-78
2020/12/07 03:47:09;;;;;;;15.77;8.50;;;;;;;;;;8345176;28;20083;-78
2020/12/07 03:51:12;;;;;;;15.63;8.50;;;;;;;;;;8328106;28;20052;-77
2020/12/07 03:55:16;;;;;;;10.15;5.55;;;;;;;;;;8345062;28;20459;-77
2020/12/07 03:59:19;;;;;;;14.40;8.75;;;;;;;;;;8343660;28;20497;-76
2020/12/07 04:03:24;;;;;;;23.27;11.63;;;;;;;;;;8344148;28;20382;-76
2020/12/07 04:07:33;;;;;;;19.05;9.77;;;;;;;;;;8328281;28;20382;-77
2020/12/07 04:11:36;;;;;;;26.55;11.02;;;;;;;;;;8344506;28;20374;-77
2020/12/07 04:15:39;;;;;;;27.55;12.90;;;;;;;;;;8326392;28;20056;-78
2020/12/07 04:20:01;;;;;;;27.65;10.90;;;;;;;;;;8325114;28;20367;-76
2020/12/07 04:24:04;;;;;;;25.30;12.82;;;;;;;;;;8327479;28;20052;-77
2020/12/07 04:28:07;;;;;;;19.02;9.68;;;;;;;;;;8327506;28;20375;-75
2020/12/07 04:32:10;;;;;;;20.02;9.95;;;;;;;;;;8326732;28;20486;-76
2020/12/07 04:36:13;;;;;;;17.13;8.15;;;;;;;;;;8326809;28;20480;-76
2020/12/07 04:40:16;;;;;;;14.10;7.88;;;;;;;;;;8325948;28;20102;-76
2020/12/07 04:44:19;;;;;;;15.25;7.32;;;;;;;;;;8327412;28;20378;-77
2020/12/07 04:48:22;;;;;;;15.10;8.10;;;;;;;;;;8343070;28;20374;-76
2020/12/07 04:52:25;;;;;;;12.77;7.22;;;;;;;;;;8326411;28;20378;-78
2020/12/07 04:56:28;;;;;;;16.33;8.45;;;;;;;;;;8325846;28;20383;-76
2020/12/07 05:00:32;;;;;;;18.58;8.25;;;;;;;;;;8323821;28;20070;-76
2020/12/07 05:04:36;;;;;;;20.30;9.93;;;;;;;;;;8292350;28;20492;-76
2020/12/07 05:08:40;;;;;;;12.00;7.70;;;;;;;;;;8326235;28;20512;-78
2020/12/07 05:12:46;;;;;;;10.85;7.70;;;;;;;;;;8323614;28;20460;-77
2020/12/07 05:16:50;;;;;;;16.00;7.63;;;;;;;;;;8324820;28;20493;-77
2020/12/07 05:20:53;;;;;;;15.88;8.90;;;;;;;;;;8237818;28;20044;-76
2020/12/07 05:24:56;;;;;;;13.00;7.28;;;;;;;;;;8322915;28;20382;-77
2020/12/07 05:29:04;;;;;;;19.05;9.82;;;;;;;;;;8326309;28;20506;-77
2020/12/07 05:33:07;;;;;;;;;;;;;;;;;;8339520;28;20497;-76
2020/12/07 05:37:10;;;;;;;9.45;5.80;;;;;;;;;;8324020;28;20611;-78
2020/12/07 05:41:16;;;;;;;33.38;13.15;;;;;;;;;;8338765;28;20466;-76
2020/12/07 05:45:19;;;;;;;20.83;10.18;;;;;;;;;;8323772;28;20370;-76
2020/12/07 05:49:24;;;;;;;24.25;10.10;;;;;;;;;;8323978;28;20497;-76
2020/12/07 05:53:27;;;;;;;17.02;8.15;;;;;;;;;;8323982;28;20079;-75
2020/12/07 05:57:32;;;;;;;31.63;13.82;;;;;;;;;;8323686;28;20406;-77
2020/12/07 06:01:37;;;;;;;14.98;8.57;;;;;;;;;;8323669;28;20488;-77
2020/12/07 06:05:41;;;;;;;17.30;9.90;;;;;;;;;;8325098;28;20070;-76
2020/12/07 06:09:47;;;;;;;30.42;16.58;;;;;;;;;;8322505;28;20382;-76
2020/12/07 06:13:51;;;;;;;26.02;14.60;;;;;;;;;;8322068;28;20364;-77
2020/12/07 06:17:54;;;;;;;12.93;7.32;;;;;;;;;;8321844;28;20463;-78
2020/12/07 06:22:02;;;;;;;29.83;15.90;;;;;;;;;;8324668;28;20479;-77
2020/12/07 06:26:09;;;;;;;20.50;12.25;;;;;;;;;;8322246;28;20479;-77
2020/12/07 06:30:12;;;;;;;18.42;11.05;;;;;;;;;;8324288;28;20474;-77
2020/12/07 06:34:16;;;;;;;12.10;8.40;;;;;;;;;;8325553;28;20493;-77
2020/12/07 06:38:18;;;;;;;10.55;7.90;;;;;;;;;;8341232;28;20447;-78
2020/12/07 06:42:26;;;;;;;15.80;9.82;;;;;;;;;;8340437;28;20508;-77
2020/12/07 06:46:57;;;;;;;13.48;8.52;;;;;;;;;;8325966;28;20378;-77
2020/12/07 06:50:59;;;;;;;12.82;8.45;;;;;;;;;;8332067;28;20378;-76
2020/12/07 06:55:12;;;;;;;9.27;6.43;;;;;;;;;;8331248;28;20048;-78
2020/12/07 06:59:16;;;;;;;12.40;8.07;;;;;;;;;;8330748;28;20393;-77
2020/12/07 07:03:19;;;;;;;13.95;6.97;;;;;;;;;;8330588;28;20052;-75
2020/12/07 07:07:26;;;;;;;15.57;8.80;;;;;;;;;;8330751;28;20492;-77
2020/12/07 07:11:29;;;;;;;12.88;7.70;;;;;;;;;;8330767;28;20413;-76
2020/12/07 07:15:34;;;;;;;17.75;10.02;;;;;;;;;;8326193;28;20412;-76
2020/12/07 07:19:36;;;;;;;16.98;9.27;;;;;;;;;;8330486;28;20402;-75
2020/12/07 07:23:42;;;;;;;20.95;10.18;;;;;;;;;;8330390;28;20462;-78
2020/12/07 07:27:59;;;;;;;19.08;10.68;;;;;;;;;;8329872;28;20074;-76
2020/12/07 07:32:02;;;;;;;15.63;9.27;;;;;;;;;;8329264;28;20379;-77
2020/12/07 07:36:04;;;;;;;17.85;9.73;;;;;;;;;;8328180;28;20067;-77
2020/12/07 07:40:20;;;;;;;12.13;7.75;;;;;;;;;;8326919;28;20386;-76
2020/12/07 07:44:23;;;;;;;10.60;5.82;;;;;;;;;;8328795;28;20056;-77
2020/12/07 07:48:32;;;;;;;11.43;7.10;;;;;;;;;;8325363;28;20070;-77
2020/12/07 08:06:35;;;;;;;14.85;8.10;;;;;;;;;;8326783;28;20481;-77
2020/12/07 08:20:08;;;;;;;12.40;6.32;;;;;;;;;;8250068;28;20465;-77
2020/12/07 08:24:12;;;;;;;14.32;6.47;;;;;;;;;;8327580;28;20470;-77
2020/12/07 08:28:37;;;;;;;14.95;7.47;;;;;;;;;;8327469;28;20466;-77
2020/12/07 08:32:40;;;;;;;10.75;6.75;;;;;;;;;;8326380;28;20374;-76
2020/12/07 08:36:46;;;;;;;9.57;5.75;;;;;;;;;;8326683;28;20479;-77
2020/12/07 08:40:49;;;;;;;10.52;6.38;;;;;;;;;;8269535;28;20082;-77
2020/12/07 08:44:54;;;;;;;10.23;5.88;;;;;;;;;;8312704;28;20048;-76
2020/12/07 08:49:00;;;;;;;14.15;8.80;;;;;;;;;;8216402;28;20373;-77
2020/12/07 08:53:03;;;;;;;80.63;28.77;;;;;;;;;;8324995;28;20382;-76
2020/12/07 08:57:07;;;;;;;20.58;9.88;;;;;;;;;;8324356;28;20458;-76
2020/12/07 09:01:12;;;;;;;33.35;14.20;;;;;;;;;;8326751;28;20413;-75
2020/12/07 09:05:15;;;;;;;19.30;11.40;;;;;;;;;;8324210;28;20516;-76
2020/12/07 09:09:18;;;;;;;9.73;6.13;;;;;;;;;;8304844;28;20040;-75
2020/12/07 09:13:24;;;;;;;18.90;7.47;;;;;;;;;;8323954;28;20455;-75
2020/12/07 09:17:26;;;;;;;13.02;6.90;;;;;;;;;;8322332;28;20516;-76
2020/12/07 09:21:30;;;;;;;13.27;7.25;;;;;;;;;;8328055;28;20051;-76
2020/12/07 09:25:33;;;;;;;10.73;6.03;;;;;;;;;;8324193;28;20052;-75
2020/12/07 09:29:36;;;;;;;9.20;5.38;;;;;;;;;;8338558;28;20482;-75
2020/12/07 09:33:38;;;;;;;11.75;6.60;;;;;;;;;;8323616;28;20506;-76
2020/12/07 09:37:41;;;;;;;9.45;6.40;;;;;;;;;;8324338;28;20356;-76
2020/12/07 09:41:44;;;;;;;14.90;7.13;;;;;;;;;;8321086;28;20494;-76
2020/12/07 09:45:47;;;;;;;13.02;6.68;;;;;;;;;;8323334;28;20040;-76
2020/12/07 09:49:50;;;;;;;11.48;6.78;;;;;;;;;;8325381;28;20493;-78
2020/12/07 09:53:53;;;;;;;13.45;7.13;;;;;;;;;;8322072;28;20048;-77
2020/12/07 09:57:56;;;;;;;10.93;6.18;;;;;;;;;;8323094;28;20401;-76
2020/12/07 10:02:02;;;;;;;12.10;6.53;;;;;;;;;;8324218;28;20482;-75
2020/12/07 10:06:05;;;;;;;14.30;6.22;;;;;;;;;;8318679;28;20467;-75
2020/12/07 10:10:10;;;;;;;12.40;6.68;;;;;;;;;;8321089;28;20048;-76
2020/12/07 10:14:14;;;;;;;10.48;6.43;;;;;;;;;;8304146;28;20390;-76
2020/12/07 10:18:17;;;;;;;11.30;6.68;;;;;;;;;;8289847;28;20483;-77
2020/12/07 10:22:20;;;;;;;9.90;6.20;;;;;;;;;;8294115;28;20494;-75
2020/12/07 10:26:24;;;;;;;12.60;7.55;;;;;;;;;;8295761;28;20483;-76
2020/12/07 10:30:28;;;;;;;13.20;6.65;;;;;;;;;;8294901;28;20370;-75
2020/12/07 10:34:31;;;;;;;11.70;6.00;;;;;;;;;;8310524;28;20509;-76
2020/12/07 10:38:35;;;;;;;9.75;5.85;;;;;;;;;;8274690;28;20383;-75
2020/12/07 10:42:40;;;;;;;13.63;6.35;;;;;;;;;;8291400;28;20074;-76
2020/12/07 10:46:44;;;;;;;10.60;5.70;;;;;;;;;;8291596;28;20483;-76
2020/12/07 10:50:48;;;;;;;11.38;6.75;;;;;;;;;;8290846;28;20521;-75
2020/12/07 10:54:51;;;;;;;13.90;6.75;;;;;;;;;;8288781;28;20496;-76
2020/12/07 10:58:54;;;;;;;14.35;6.80;;;;;;;;;;8287372;28;20068;-77
2020/12/07 11:02:57;;;;;;;11.60;6.45;;;;;;;;;;8274100;28;20479;-75
2020/12/07 11:07:03;;;;;;;13.52;7.18;;;;;;;;;;8258513;28;20478;-75
2020/12/07 11:11:08;;;;;;;12.13;6.63;;;;;;;;;;8320560;28;20475;-76
2020/12/07 11:15:11;;;;;;;11.75;5.93;;;;;;;;;;8325186;28;20491;-74
2020/12/07 11:19:15;;;;;;;14.40;7.15;;;;;;;;;;8308020;28;20455;-75
2020/12/07 11:23:18;;;;;;;16.40;7.35;;;;;;;;;;8293947;28;20088;-75
2020/12/07 11:27:23;;;;;;;14.27;7.72;;;;;;;;;;8308907;28;20452;-74
2020/12/07 11:31:26;;;;;;;17.75;9.63;;;;;;;;;;8293617;28;20383;-77
2020/12/07 11:35:29;;;;;;;19.60;11.32;;;;;;;;;;8292808;28;20378;-76
2020/12/07 11:39:45;;;;;;;20.13;9.40;;;;;;;;;;8292487;28;20485;-75
2020/12/07 11:44:05;;;;;;;20.30;11.07;;;;;;;;;;8293404;28;20431;-77
2020/12/07 11:48:09;;;;;;;21.92;11.35;;;;;;;;;;8293380;28;20517;-76
2020/12/07 11:52:12;;;;;;;18.33;9.35;;;;;;;;;;8291692;28;20494;-76
2020/12/07 11:56:15;;;;;;;16.20;8.60;;;;;;;;;;8313873;28;20467;-77
2020/12/07 12:00:18;;;;;;;15.15;8.32;;;;;;;;;;8324488;28;20378;-77
2020/12/07 12:04:21;;;;;;;28.13;13.75;;;;;;;;;;8325585;28;20485;-77
2020/12/07 12:08:25;;;;;;;23.02;13.80;;;;;;;;;;8325787;28;20514;-76
2020/12/07 12:12:31;;;;;;;18.08;10.07;;;;;;;;;;8326629;28;20474;-77
2020/12/07 12:16:40;;;;;;;15.60;8.32;;;;;;;;;;8325405;28;20371;-76
2020/12/07 12:20:48;;;;;;;20.75;9.23;;;;;;;;;;8325131;28;20048;-76
2020/12/07 12:24:51;;;;;;;;;;;;;;;;;;8326029;28;20471;-76
2020/12/07 12:28:54;;;;;;;20.95;10.20;;;;;;;;;;8325250;28;20258;-76
2020/12/07 12:32:57;;;;;;;19.63;9.32;;;;;;;;;;8325970;28;20367;-76
2020/12/07 12:37:00;;;;;;;20.23;9.38;;;;;;;;;;8325363;28;20390;-76
2020/12/07 12:41:03;;;;;;;15.50;8.90;;;;;;;;;;8340496;28;20405;-76
2020/12/07 12:45:10;;;;;;;19.52;10.75;;;;;;;;;;8325298;28;20479;-77
2020/12/07 12:49:13;;;;;;;95.97;39.88;;;;;;;;;;8324701;28;20352;-76
2020/12/07 12:53:15;;;;;;;87.57;27.13;;;;;;;;;;8322726;28;20524;-77
2020/12/07 12:57:19;;;;;;;33.63;14.32;;;;;;;;;;8324293;28;20356;-77
2020/12/07 13:01:22;;;;;;;81.38;24.88;;;;;;;;;;8322970;28;20097;-77
2020/12/07 13:05:27;;;;;;;217.93;52.38;;;;;;;;;;8324490;28;20431;-76
2020/12/07 13:09:30;;;;;;;48.45;16.95;;;;;;;;;;8324233;28;20478;-77
2020/12/07 13:13:36;;;;;;;118.50;28.63;;;;;;;;;;8324315;28;20417;-77
2020/12/07 13:17:42;;;;;;;123.25;30.75;;;;;;;;;;8323931;28;20373;-76
2020/12/07 13:21:54;;;;;;;63.95;19.67;;;;;;;;;;8324113;28;20048;-77
2020/12/07 13:26:05;;;;;;;45.33;14.63;;;;;;;;;;8321916;28;20382;-76
2020/12/07 13:30:09;;;;;;;36.85;13.00;;;;;;;;;;8323439;28;20172;-76
2020/12/07 13:34:12;;;;;;;23.42;10.05;;;;;;;;;;8305179;28;20508;-75
2020/12/07 13:38:15;;;;;;;71.93;19.63;;;;;;;;;;8322410;28;20352;-76
2020/12/07 13:42:18;;;;;;;127.45;30.73;;;;;;;;;;8287599;28;20359;-76
2020/12/07 13:46:21;;;;;;;22.05;10.82;;;;;;;;;;8321749;28;20370;-76
2020/12/07 13:50:26;;;;;;;25.33;11.27;;;;;;;;;;8323082;28;20375;-76
2020/12/07 13:54:29;;;;;;;139.27;39.42;;;;;;;;;;8273090;28;20501;-77
2020/12/07 13:58:33;;;;;;;80.70;25.52;;;;;;;;;;8203291;28;20503;-76
2020/12/07 14:02:36;;;;;;;74.68;24.95;;;;;;;;;;8258049;28;20566;-75
2020/12/07 14:06:39;;;;;;;68.18;22.83;;;;;;;;;;8172474;28;20075;-79
2020/12/07 14:10:42;;;;;;;39.55;14.73;;;;;;;;;;8254048;28;20053;-76
2020/12/07 14:14:45;;;;;;;48.30;20.10;;;;;;;;;;8257102;28;20364;-76
2020/12/07 14:18:59;;;;;;;149.40;42.92;;;;;;;;;;8215073;28;20381;-76
2020/12/07 14:23:11;;;;;;;38.22;15.13;;;;;;;;;;8258013;28;20378;-77
2020/12/07 14:27:48;;;;;;;34.47;13.57;;;;;;;;;;8259141;28;20045;-78
2020/12/07 14:40:36;;;;;;;400.10;114.68;;;;;;;;;;8265013;28;20474;-77
2020/12/07 14:44:45;;;;;;;343.95;92.40;;;;;;;;;;8261539;28;20387;-77
2020/12/07 14:48:50;;;;;;;62.58;21.30;;;;;;;;;;8259002;28;20049;-76
2020/12/07 14:52:53;;;;;;;490.40;121.22;;;;;;;;;;8300399;28;20363;-76
2020/12/07 14:57:13;;;;;;;46.63;18.17;;;;;;;;;;8308654;28;20501;-76
2020/12/07 15:01:33;;;;;;;38.60;15.98;;;;;;;;;;8326306;28;20379;-76
2020/12/07 15:05:37;;;;;;;267.15;58.38;;;;;;;;;;8306290;28;20378;-77
2020/12/07 15:14:01;;;;;;;243.93;54.08;;;;;;;;;;8288760;28;20451;-77
2020/12/07 15:18:04;;;;;;;428.88;93.47;;;;;;;;;;8332458;28;20486;-76
2020/12/07 15:22:08;;;;;;;102.70;27.00;;;;;;;;;;8331118;28;20417;-77
2020/12/07 15:26:12;;;;;;;70.40;21.20;;;;;;;;;;8329695;28;20048;-76
2020/12/07 15:30:15;;;;;;;107.00;26.73;;;;;;;;;;8324502;28;20070;-77
2020/12/07 15:34:19;;;;;;;260.50;57.78;;;;;;;;;;8329510;28;20485;-76
2020/12/07 15:38:22;;;;;;;265.80;58.17;;;;;;;;;;8285824;28;20503;-77
2020/12/07 15:42:25;;;;;;;108.75;30.02;;;;;;;;;;8298512;28;20484;-77
2020/12/07 15:46:33;;;;;;;77.15;23.15;;;;;;;;;;8323236;28;20359;-75
2020/12/07 15:50:37;;;;;;;112.95;30.48;;;;;;;;;;8325225;28;20470;-76
2020/12/07 15:54:40;;;;;;;136.15;32.78;;;;;;;;;;8325585;28;20048;-79
2020/12/07 15:58:43;;;;;;;113.65;32.30;;;;;;;;;;8326914;28;20482;-77
2020/12/07 16:02:45;;;;;;;51.58;19.35;;;;;;;;;;8324790;28;20425;-76
2020/12/07 16:06:51;;;;;;;108.55;31.27;;;;;;;;;;8326124;28;20064;-76
2020/12/07 16:10:54;;;;;;;276.83;64.78;;;;;;;;;;8308016;28;20052;-76
2020/12/07 16:14:57;;;;;;;330.92;103.18;;;;;;;;;;8324294;28;20387;-76
2020/12/07 16:19:01;;;;;;;93.10;33.42;;;;;;;;;;8324010;28;20429;-76
2020/12/07 16:23:05;;;;;;;61.30;27.45;;;;;;;;;;8324282;28;20462;-76
2020/12/07 16:27:07;;;;;;;68.45;23.48;;;;;;;;;;8302962;28;20066;-76
2020/12/07 16:31:11;;;;;;;73.45;22.65;;;;;;;;;;8319778;28;20482;-76
2020/12/07 16:35:14;;;;;;;143.45;32.42;;;;;;;;;;8302010;28;20455;-76
2020/12/07 16:39:17;;;;;;;243.05;54.72;;;;;;;;;;8301916;28;20493;-77
2020/12/07 16:43:21;;;;;;;90.70;24.45;;;;;;;;;;8319952;28;20056;-77
2020/12/07 16:47:25;;;;;;;94.47;25.90;;;;;;;;;;8305007;28;20075;-75
2020/12/07 16:51:31;;;;;;;50.08;17.77;;;;;;;;;;8268936;28;20458;-75
2020/12/07 16:55:40;;;;;;;157.88;42.00;;;;;;;;;;8276701;28;20060;-75
2020/12/07 16:59:44;;;;;;;35.35;14.45;;;;;;;;;;8253624;28;20052;-76
2020/12/07 17:03:47;;;;;;;182.93;50.47;;;;;;;;;;8283184;28;20455;-76
2020/12/07 17:07:51;;;;;;;64.05;23.65;;;;;;;;;;8282637;28;20471;-75
2020/12/07 17:11:56;;;;;;;108.95;33.40;;;;;;;;;;8260097;28;20485;-75
2020/12/07 17:15:59;;;;;;;119.57;40.00;;;;;;;;;;8277255;28;20060;-75
2020/12/07 17:20:03;;;;;;;166.07;51.70;;;;;;;;;;8262470;28;20459;-75
2020/12/07 17:24:06;;;;;;;178.05;54.97;;;;;;;;;;8255802;28;20459;-75
2020/12/07 17:28:10;;;;;;;78.72;31.08;;;;;;;;;;8256001;28;20486;-75
2020/12/07 17:32:16;;;;;;;37.00;16.48;;;;;;;;;;8256197;28;20476;-76
2020/12/07 17:36:18;;;;;;;29.85;15.38;;;;;;;;;;8255800;28;20414;-76
2020/12/07 17:40:21;;;;;;;31.95;14.30;;;;;;;;;;8261193;28;20194;-76
2020/12/07 17:44:25;;;;;;;57.38;22.95;;;;;;;;;;8254644;28;20414;-76
2020/12/07 17:48:32;;;;;;;37.05;17.05;;;;;;;;;;8268937;28;20360;-76
2020/12/07 17:52:37;;;;;;;34.38;17.45;;;;;;;;;;8254709;28;20521;-76
2020/12/07 17:56:40;;;;;;;34.15;16.33;;;;;;;;;;8254876;28;20083;-76
2020/12/07 18:00:44;;;;;;;34.40;16.90;;;;;;;;;;8269874;28;20388;-76
2020/12/07 18:04:47;;;;;;;34.40;15.43;;;;;;;;;;8253596;28;20067;-76
2020/12/07 18:08:50;;;;;;;37.28;17.35;;;;;;;;;;8255711;28;20479;-76
2020/12/07 18:12:54;;;;;;;42.60;19.52;;;;;;;;;;8254644;28;20523;-76
2020/12/07 18:17:01;;;;;;;50.38;21.50;;;;;;;;;;8255425;28;20480;-75
2020/12/07 18:21:05;;;;;;;51.58;21.33;;;;;;;;;;8235675;28;20361;-77
2020/12/07 18:25:09;;;;;;;68.55;27.30;;;;;;;;;;8254177;28;20475;-75
2020/12/07 18:29:14;;;;;;;51.17;20.73;;;;;;;;;;8255089;28;20494;-75
2020/12/07 18:33:17;;;;;;;43.00;17.75;;;;;;;;;;8255877;28;20479;-75
2020/12/07 18:37:24;;;;;;;75.60;26.52;;;;;;;;;;8254746;28;20478;-77
2020/12/07 18:41:27;;;;;;;48.95;20.23;;;;;;;;;;8255584;28;20451;-76
2020/12/07 18:45:32;;;;;;;42.35;18.90;;;;;;;;;;8261907;28;20364;-76
2020/12/07 18:49:35;;;;;;;59.88;23.30;;;;;;;;;;8261354;28;20072;-75
2020/12/07 18:53:39;;;;;;;51.55;19.88;;;;;;;;;;8261788;28;20487;-75
2020/12/07 18:57:43;;;;;;;69.30;21.38;;;;;;;;;;8260391;28;20479;-75
2020/12/07 19:01:54;;;;;;;52.88;21.58;;;;;;;;;;8260406;28;20387;-75
2020/12/07 19:05:57;;;;;;;92.60;29.33;;;;;;;;;;8262932;28;20361;-76
2020/12/07 19:10:09;;;;;;;108.13;30.67;;;;;;;;;;8261310;28;20352;-75
2020/12/07 19:14:12;;;;;;;502.40;120.80;;;;;;;;;;8261305;28;20497;-75
2020/12/07 19:18:15;;;;;;;331.10;98.00;;;;;;;;;;8260840;28;20479;-76
2020/12/07 19:22:19;;;;;;;275.08;66.85;;;;;;;;;;8241491;28;20490;-75
2020/12/07 19:26:25;;;;;;;424.75;91.10;;;;;;;;;;8233915;28;20478;-75
2020/12/07 19:30:28;;;;;;;256.75;50.67;;;;;;;;;;8305407;28;20369;-75
2020/12/07 19:34:32;;;;;;;602.83;117.53;;;;;;;;;;8245701;28;20500;-75
2020/12/07 19:38:34;;;;;;;301.55;58.58;;;;;;;;;;8243210;28;20458;-75
2020/12/07 19:42:39;;;;;;;366.80;72.50;;;;;;;;;;8309523;28;20471;-75
2020/12/07 19:46:42;;;;;;;201.38;42.35;;;;;;;;;;8228573;28;20382;-74
2020/12/07 19:50:45;;;;;;;131.45;35.75;;;;;;;;;;8308724;28;20070;-74
2020/12/07 19:54:48;;;;;;;237.70;51.28;;;;;;;;;;8325405;28;20459;-75
2020/12/07 19:58:51;;;;;;;148.75;39.95;;;;;;;;;;8291897;28;20496;-76
2020/12/07 20:02:55;;;;;;;68.05;23.92;;;;;;;;;;8256258;28;20382;-76
2020/12/07 20:06:58;;;;;;;404.00;89.60;;;;;;;;;;8326536;28;20466;-75
2020/12/07 20:11:01;;;;;;;119.53;32.47;;;;;;;;;;8326856;28;20378;-75
2020/12/07 20:15:05;;;;;;;106.85;30.13;;;;;;;;;;8325644;28;20379;-76
2020/12/07 20:19:09;;;;;;;209.68;45.92;;;;;;;;;;8325868;28;20360;-75
2020/12/07 20:23:12;;;;;;;95.70;28.40;;;;;;;;;;8324071;28;20466;-76
2020/12/07 20:27:15;;;;;;;91.53;28.48;;;;;;;;;;8326210;28;20412;-75
2020/12/07 20:31:21;;;;;;;123.53;33.95;;;;;;;;;;8325671;28;20359;-76
2020/12/07 20:35:24;;;;;;;166.43;40.63;;;;;;;;;;8308068;28;20401;-76
2020/12/07 20:39:27;;;;;;;96.53;29.20;;;;;;;;;;8325407;28;20496;-76
2020/12/07 20:43:30;;;;;;;62.47;24.20;;;;;;;;;;8325600;28;20356;-76
2020/12/07 20:47:34;;;;;;;117.32;30.90;;;;;;;;;;8324549;28;20486;-76
2020/12/07 20:51:37;;;;;;;108.97;33.08;;;;;;;;;;8324206;28;20459;-75
2020/12/07 20:55:40;;;;;;;415.40;99.82;;;;;;;;;;8322713;28;20056;-75
2020/12/07 20:59:43;;;;;;;182.77;51.13;;;;;;;;;;8324463;28;20372;-76
2020/12/07 21:03:46;;;;;;;229.27;58.55;;;;;;;;;;8324701;28;20351;-75
2020/12/07 21:07:49;;;;;;;217.93;52.33;;;;;;;;;;8323814;28;20111;-75
2020/12/07 21:11:57;;;;;;;113.95;35.15;;;;;;;;;;8324184;28;20390;-76
2020/12/07 21:16:00;;;;;;;187.95;50.35;;;;;;;;;;8324037;28;20471;-75
2020/12/07 21:20:05;;;;;;;69.07;26.38;;;;;;;;;;8323557;28;20495;-75
2020/12/07 21:24:08;;;;;;;78.40;28.88;;;;;;;;;;8324162;28;20366;-75
2020/12/07 21:28:11;;;;;;;104.72;36.92;;;;;;;;;;8323512;28;20477;-76
2020/12/07 21:32:14;;;;;;;154.80;41.95;;;;;;;;;;8323508;28;20056;-75
2020/12/07 21:36:17;;;;;;;181.70;46.88;;;;;;;;;;8322976;28;20379;-75
2020/12/07 21:40:21;;;;;;;69.75;24.77;;;;;;;;;;8323238;28;20486;-75
2020/12/07 21:44:24;;;;;;;237.00;55.65;;;;;;;;;;8305333;28;20044;-75
2020/12/07 21:48:27;;;;;;;251.27;57.70;;;;;;;;;;8323686;28;20455;-75
2020/12/07 21:52:31;;;;;;;93.55;28.95;;;;;;;;;;8323043;28;20463;-75
2020/12/07 21:56:33;;;;;;;139.75;39.00;;;;;;;;;;8323088;28;20460;-75
2020/12/07 22:00:37;;;;;;;276.13;67.95;;;;;;;;;;8322667;28;20393;-76
2020/12/07 22:04:43;;;;;;;46.88;21.00;;;;;;;;;;8323308;28;20506;-75
2020/12/07 22:08:49;;;;;;;172.13;49.38;;;;;;;;;;8322503;28;20483;-75
2020/12/07 22:12:52;;;;;;;219.75;59.75;;;;;;;;;;8323188;28;20467;-75
2020/12/07 22:16:55;;;;;;;200.27;57.92;;;;;;;;;;8321494;28;20495;-75
2020/12/07 22:20:58;;;;;;;118.55;36.70;;;;;;;;;;8317425;28;20382;-75
2020/12/07 22:25:01;;;;;;;236.57;70.85;;;;;;;;;;8321471;28;20485;-75
2020/12/07 22:29:04;;;;;;;139.68;48.63;;;;;;;;;;8322605;28;20466;-75
2020/12/07 22:33:09;;;;;;;55.90;23.42;;;;;;;;;;8322110;28;20383;-75
2020/12/07 22:37:11;;;;;;;61.67;24.75;;;;;;;;;;8322760;28;20048;-75
2020/12/07 22:41:22;;;;;;;55.88;23.45;;;;;;;;;;8322164;28;20355;-75
2020/12/07 22:45:25;;;;;;;73.90;28.45;;;;;;;;;;8304140;28;20474;-76
2020/12/07 22:49:27;;;;;;;116.45;42.92;;;;;;;;;;8322512;28;20462;-75
2020/12/07 22:53:30;;;;;;;371.77;79.65;;;;;;;;;;8321923;28;20497;-75
2020/12/07 22:57:34;;;;;;;870.70;198.70;;;;;;;;;;8322186;28;20455;-76
2020/12/07 23:01:38;;;;;;;806.70;186.30;;;;;;;;;;8317877;28;20386;-75
2020/12/07 23:05:41;;;;;;;104.72;29.80;;;;;;;;;;8289751;28;20356;-75
2020/12/07 23:09:44;;;;;;;408.77;78.05;;;;;;;;;;8271713;28;20383;-75
2020/12/07 23:13:47;;;;;;;324.08;70.80;;;;;;;;;;8288578;28;20360;-75
2020/12/07 23:17:50;;;;;;;421.75;92.50;;;;;;;;;;8288862;28;20359;-76
2020/12/07 23:21:53;;;;;;;399.77;93.40;;;;;;;;;;8288683;28;20379;-76
2020/12/07 23:25:57;;;;;;;417.95;97.20;;;;;;;;;;8288413;28;20463;-75
2020/12/07 23:30:01;;;;;;;104.68;31.92;;;;;;;;;;8291342;28;20372;-75
2020/12/07 23:34:05;;;;;;;111.93;30.88;;;;;;;;;;8294011;28;20378;-75
2020/12/07 23:38:09;;;;;;;305.30;72.07;;;;;;;;;;8294366;28;20399;-75
2020/12/07 23:42:12;;;;;;;169.27;47.45;;;;;;;;;;8275080;28;20399;-76
2020/12/07 23:46:17;;;;;;;80.03;29.50;;;;;;;;;;8294519;28;20451;-76
2020/12/07 23:50:22;;;;;;;127.78;38.00;;;;;;;;;;8276031;28;20387;-75
2020/12/07 23:54:29;;;;;;;115.45;32.88;;;;;;;;;;8293596;28;20513;-75
2020/12/07 23:58:32;;;;;;;42.95;20.05;;;;;;;;;;8293597;28;20483;-76
